createdAt,value
2022-11-30T00:01:23.176Z,20.67
2022-11-30T00:03:54.167Z,20.72
2022-11-30T00:06:23.600Z,20.72
2022-11-30T00:08:58.435Z,20.74
2022-11-30T00:11:28.839Z,20.75
2022-11-30T00:13:56.322Z,20.73
2022-11-30T00:16:23.673Z,20.76
2022-11-30T00:18:51.014Z,20.81
2022-11-30T00:21:18.273Z,20.87
2022-11-30T00:23:47.167Z,20.91
2022-11-30T00:26:16.865Z,20.94
2022-11-30T00:28:46.053Z,20.91
2022-11-30T00:31:15.342Z,20.93
2022-11-30T00:33:42.782Z,20.95
2022-11-30T00:36:22.326Z,20.99
2022-11-30T00:38:50.639Z,21.02
2022-11-30T00:41:19.036Z,21.03
2022-11-30T00:43:46.127Z,21.06
2022-11-30T00:46:14.248Z,21.05
2022-11-30T00:48:41.796Z,21.05
2022-11-30T00:51:10.760Z,21.05
2022-11-30T00:53:38.243Z,21.05
2022-11-30T00:56:06.369Z,21.03
2022-11-30T00:58:33.513Z,21.07
2022-11-30T01:01:01.225Z,21.07
2022-11-30T01:03:28.278Z,21.07
2022-11-30T01:05:55.262Z,21.04
2022-11-30T01:08:22.369Z,21.04
2022-11-30T01:10:53.630Z,21.04
2022-11-30T01:13:20.602Z,21.06
2022-11-30T01:15:47.697Z,21.06
2022-11-30T01:18:14.800Z,21.05
2022-11-30T01:20:44.863Z,21.05
2022-11-30T01:23:12.221Z,20.99
2022-11-30T01:25:39.590Z,20.92
2022-11-30T01:28:07.080Z,20.88
2022-11-30T01:30:34.271Z,20.89
2022-11-30T01:33:05.919Z,20.87
2022-11-30T01:35:32.916Z,20.81
2022-11-30T01:37:59.980Z,20.79
2022-11-30T01:40:27.065Z,20.78
2022-11-30T01:42:54.104Z,20.71
2022-11-30T01:45:21.697Z,20.69
2022-11-30T01:47:52.894Z,20.72
2022-11-30T01:50:38.477Z,20.76
2022-11-30T01:53:11.096Z,20.76
2022-11-30T01:55:44.398Z,20.80
2022-11-30T01:58:27.343Z,20.85
2022-11-30T02:00:54.624Z,20.85
2022-11-30T02:03:40.135Z,20.86
2022-11-30T02:06:08.679Z,20.89
2022-11-30T02:08:35.857Z,20.92
2022-11-30T02:11:10.530Z,20.91
2022-11-30T02:13:40.371Z,20.93
2022-11-30T02:16:09.961Z,20.91
2022-11-30T02:19:05.466Z,20.92
2022-11-30T02:22:13.802Z,20.90
2022-11-30T02:25:03.349Z,20.92
2022-11-30T02:27:48.713Z,20.90
2022-11-30T02:30:19.753Z,20.89
2022-11-30T02:32:55.662Z,20.87
2022-11-30T02:35:30.371Z,20.88
2022-11-30T02:37:58.640Z,20.88
2022-11-30T02:40:25.976Z,20.88
2022-11-30T02:42:54.371Z,20.87
2022-11-30T02:45:31.857Z,20.88
2022-11-30T02:47:58.808Z,20.89
2022-11-30T02:50:35.935Z,20.87
2022-11-30T02:53:03.520Z,20.82
2022-11-30T02:55:32.178Z,20.82
2022-11-30T02:57:59.249Z,20.85
2022-11-30T03:00:26.416Z,20.86
2022-11-30T03:02:53.572Z,20.87
2022-11-30T03:05:20.631Z,20.88
2022-11-30T03:07:47.699Z,20.84
2022-11-30T03:10:14.741Z,20.86
2022-11-30T03:12:41.781Z,20.88
2022-11-30T03:15:09.180Z,20.88
2022-11-30T03:17:36.221Z,20.91
2022-11-30T03:20:03.533Z,20.92
2022-11-30T03:22:30.858Z,20.93
2022-11-30T03:24:57.884Z,20.94
2022-11-30T03:27:24.877Z,20.96
2022-11-30T03:29:51.952Z,20.95
2022-11-30T03:32:19.477Z,20.95
2022-11-30T03:34:46.580Z,20.96
2022-11-30T03:37:13.874Z,20.95
2022-11-30T03:39:40.862Z,20.94
2022-11-30T03:42:07.850Z,20.89
2022-11-30T03:44:34.958Z,20.89
2022-11-30T03:47:01.914Z,20.93
2022-11-30T03:49:28.890Z,20.93
2022-11-30T03:51:56.072Z,20.92
2022-11-30T03:54:23.154Z,20.93
2022-11-30T03:56:50.141Z,20.92
2022-11-30T03:59:17.230Z,20.92
2022-11-30T04:01:44.287Z,20.92
2022-11-30T04:04:13.210Z,20.89
2022-11-30T04:06:41.249Z,20.87
2022-11-30T04:09:09.740Z,20.84
2022-11-30T04:11:36.685Z,20.83
2022-11-30T04:14:03.800Z,20.84
2022-11-30T04:16:30.795Z,20.81
2022-11-30T04:18:57.907Z,20.78
2022-11-30T04:21:25.354Z,20.75
2022-11-30T04:23:52.354Z,20.73
2022-11-30T04:26:19.404Z,20.70
2022-11-30T04:28:46.775Z,20.70
2022-11-30T04:31:13.868Z,20.73
2022-11-30T04:33:41.025Z,20.76
2022-11-30T04:36:14.961Z,20.74
2022-11-30T04:38:41.965Z,20.75
2022-11-30T04:41:09.573Z,20.79
2022-11-30T04:43:37.450Z,20.79
2022-11-30T04:46:05.584Z,20.79
2022-11-30T04:48:32.647Z,20.79
2022-11-30T04:51:07.414Z,20.79
2022-11-30T04:53:36.857Z,20.81
2022-11-30T04:56:11.801Z,20.83
2022-11-30T04:58:39.725Z,20.83
2022-11-30T05:01:07.705Z,20.81
2022-11-30T05:03:35.299Z,20.82
2022-11-30T05:06:03.318Z,20.82
2022-11-30T05:08:30.761Z,20.79
2022-11-30T05:10:57.850Z,20.78
2022-11-30T05:13:26.004Z,20.77
2022-11-30T05:15:54.167Z,20.75
2022-11-30T05:18:21.806Z,20.72
2022-11-30T05:20:53.079Z,20.67
2022-11-30T05:23:20.788Z,20.62
2022-11-30T05:25:48.081Z,20.63
2022-11-30T05:28:15.048Z,20.60
2022-11-30T05:30:43.352Z,20.60
2022-11-30T05:33:10.775Z,20.62
2022-11-30T05:35:37.789Z,20.67
2022-11-30T05:38:05.495Z,20.66
2022-11-30T05:40:33.894Z,20.65
2022-11-30T05:43:02.368Z,20.61
2022-11-30T05:45:29.947Z,20.57
2022-11-30T05:47:57.008Z,20.53
2022-11-30T05:50:24.092Z,20.52
2022-11-30T05:52:56.726Z,20.50
2022-11-30T05:55:28.237Z,20.48
2022-11-30T05:57:55.261Z,20.50
2022-11-30T06:00:22.585Z,20.52
2022-11-30T06:02:55.275Z,20.52
2022-11-30T06:05:22.345Z,20.52
2022-11-30T06:07:49.371Z,20.56
2022-11-30T06:10:16.443Z,20.59
2022-11-30T06:12:43.541Z,20.61
2022-11-30T06:15:10.985Z,20.61
2022-11-30T06:17:39.350Z,20.62
2022-11-30T06:20:07.679Z,20.65
2022-11-30T06:22:34.794Z,20.65
2022-11-30T06:25:01.782Z,20.67
2022-11-30T06:27:32.411Z,20.70
2022-11-30T06:29:59.685Z,20.70
2022-11-30T06:32:26.744Z,20.69
2022-11-30T06:34:53.751Z,20.70
2022-11-30T06:37:20.798Z,20.69
2022-11-30T06:40:05.999Z,20.71
2022-11-30T06:42:34.302Z,20.74
2022-11-30T06:45:01.258Z,20.74
2022-11-30T06:47:28.336Z,20.76
2022-11-30T06:49:55.658Z,20.73
2022-11-30T06:52:22.641Z,20.69
2022-11-30T06:54:49.900Z,20.70
2022-11-30T06:57:17.104Z,20.70
2022-11-30T06:59:44.427Z,20.71
2022-11-30T07:02:18.617Z,20.72
2022-11-30T07:04:46.902Z,20.72
2022-11-30T07:07:14.322Z,20.69
2022-11-30T07:09:41.854Z,20.67
2022-11-30T07:12:09.493Z,20.63
2022-11-30T07:14:36.657Z,20.61
2022-11-30T07:17:06.749Z,20.61
2022-11-30T07:19:37.364Z,20.58
2022-11-30T07:22:04.631Z,20.54
2022-11-30T07:24:50.400Z,20.54
2022-11-30T07:27:17.576Z,20.52
2022-11-30T07:29:44.652Z,20.51
2022-11-30T07:32:11.880Z,20.48
2022-11-30T07:34:38.943Z,20.52
2022-11-30T07:37:05.985Z,20.56
2022-11-30T07:39:33.003Z,20.59
2022-11-30T07:41:59.950Z,20.56
2022-11-30T07:44:27.767Z,20.58
2022-11-30T07:46:54.830Z,20.58
2022-11-30T07:49:21.824Z,20.58
2022-11-30T07:51:48.841Z,20.57
2022-11-30T07:54:15.856Z,20.55
2022-11-30T07:56:42.914Z,20.51
2022-11-30T07:59:10.109Z,20.55
2022-11-30T08:01:37.654Z,20.56
2022-11-30T08:04:04.855Z,20.60
2022-11-30T08:06:32.671Z,20.61
2022-11-30T08:09:02.171Z,20.60
2022-11-30T08:11:33.063Z,20.58
2022-11-30T08:14:00.915Z,20.63
2022-11-30T08:16:29.626Z,20.67
2022-11-30T08:18:57.615Z,20.73
2022-11-30T08:21:25.133Z,20.77
2022-11-30T08:23:56.205Z,20.79
2022-11-30T08:26:34.311Z,20.81
2022-11-30T08:29:02.135Z,20.81
2022-11-30T08:31:35.671Z,20.83
2022-11-30T08:34:08.182Z,20.80
2022-11-30T08:36:35.784Z,20.80
2022-11-30T08:39:05.344Z,20.85
2022-11-30T08:41:33.338Z,20.85
2022-11-30T08:44:00.597Z,20.92
2022-11-30T08:46:50.495Z,20.93
2022-11-30T08:49:24.453Z,20.99
2022-11-30T08:52:16.335Z,21.04
2022-11-30T08:54:46.447Z,21.12
2022-11-30T08:57:18.046Z,21.14
2022-11-30T08:59:45.302Z,21.21
2022-11-30T09:02:14.982Z,21.28
2022-11-30T09:04:42.086Z,21.32
2022-11-30T09:07:09.916Z,21.37
2022-11-30T09:09:38.016Z,21.41
2022-11-30T09:12:06.079Z,21.45
2022-11-30T09:14:34.021Z,21.47
2022-11-30T09:17:01.128Z,21.49
2022-11-30T09:19:28.385Z,21.52
2022-11-30T09:21:55.563Z,21.56
2022-11-30T09:24:22.691Z,21.59
2022-11-30T09:26:49.726Z,21.59
2022-11-30T09:29:16.790Z,21.63
2022-11-30T09:31:43.892Z,21.66
2022-11-30T09:34:12.269Z,21.69
2022-11-30T09:36:39.369Z,21.75
2022-11-30T09:39:06.932Z,21.79
2022-11-30T09:42:04.878Z,21.81
2022-11-30T09:44:49.394Z,21.84
2022-11-30T09:47:47.379Z,21.85
2022-11-30T09:50:18.956Z,21.86
2022-11-30T09:52:58.783Z,21.87
2022-11-30T09:55:39.700Z,21.90
2022-11-30T09:58:08.147Z,21.94
2022-11-30T10:00:37.211Z,21.92
2022-11-30T10:03:06.284Z,21.94
2022-11-30T10:05:42.102Z,21.93
2022-11-30T10:08:34.147Z,21.97
2022-11-30T10:11:25.812Z,21.98
2022-11-30T10:14:01.160Z,21.99
2022-11-30T10:16:48.411Z,22.02
2022-11-30T10:19:43.000Z,22.07
2022-11-30T10:22:25.197Z,22.07
2022-11-30T10:24:55.311Z,22.15
2022-11-30T10:27:34.929Z,22.19
2022-11-30T10:30:02.601Z,22.24
2022-11-30T10:32:38.633Z,22.30
2022-11-30T10:35:41.038Z,22.36
2022-11-30T10:38:46.730Z,22.37
2022-11-30T10:41:19.823Z,22.40
2022-11-30T10:44:10.407Z,22.40
2022-11-30T10:46:43.921Z,22.33
2022-11-30T10:49:18.893Z,22.29
2022-11-30T10:51:49.941Z,22.20
2022-11-30T10:54:20.001Z,22.10
2022-11-30T10:56:47.818Z,22.10
2022-11-30T10:59:28.126Z,22.14
2022-11-30T11:01:55.319Z,22.18
2022-11-30T11:04:24.974Z,22.23
2022-11-30T11:07:10.777Z,22.34
2022-11-30T11:09:40.896Z,22.39
2022-11-30T11:12:21.037Z,22.39
2022-11-30T11:14:48.587Z,22.39
2022-11-30T11:17:26.540Z,22.40
2022-11-30T11:19:53.622Z,22.45
2022-11-30T11:22:21.845Z,22.46
2022-11-30T11:25:10.015Z,22.43
2022-11-30T11:27:42.858Z,22.38
2022-11-30T11:30:27.293Z,22.36
2022-11-30T11:33:07.225Z,22.34
2022-11-30T11:35:41.963Z,22.43
2022-11-30T11:38:42.940Z,22.50
2022-11-30T11:41:15.789Z,22.53
2022-11-30T11:44:10.809Z,22.52
2022-11-30T11:46:59.238Z,22.48
2022-11-30T11:49:33.035Z,22.54
2022-11-30T11:52:20.247Z,22.56
2022-11-30T11:54:56.468Z,22.63
2022-11-30T11:57:42.132Z,22.65
2022-11-30T12:00:18.500Z,22.75
2022-11-30T12:02:58.052Z,22.73
2022-11-30T12:05:44.744Z,22.71
2022-11-30T12:08:20.474Z,22.72
2022-11-30T12:10:52.304Z,22.72
2022-11-30T12:13:22.794Z,22.72
2022-11-30T12:15:54.031Z,22.79
2022-11-30T12:18:42.318Z,22.81
2022-11-30T12:21:22.253Z,22.86
2022-11-30T12:24:29.852Z,22.89
2022-11-30T12:27:21.536Z,22.96
2022-11-30T12:30:17.412Z,23.02
2022-11-30T12:33:02.601Z,23.08
2022-11-30T12:35:44.533Z,23.15
2022-11-30T12:38:32.337Z,23.20
2022-11-30T12:41:08.261Z,23.21
2022-11-30T12:43:50.616Z,23.19
2022-11-30T12:46:36.658Z,23.17
2022-11-30T12:49:53.533Z,23.17
2022-11-30T12:52:39.432Z,23.27
2022-11-30T12:55:29.396Z,23.35
2022-11-30T12:57:59.042Z,23.32
2022-11-30T13:00:37.626Z,23.31
2022-11-30T13:03:13.562Z,23.34
2022-11-30T13:06:07.558Z,23.30
2022-11-30T13:09:06.559Z,23.19
2022-11-30T13:11:42.231Z,23.22
2022-11-30T13:14:23.142Z,23.26
2022-11-30T13:17:03.237Z,23.34
2022-11-30T13:20:04.545Z,23.47
2022-11-30T13:22:50.449Z,23.54
2022-11-30T13:28:44.268Z,23.33
2022-11-30T13:31:21.927Z,23.34
2022-11-30T13:33:58.326Z,23.45
2022-11-30T13:36:41.536Z,23.50
2022-11-30T13:39:14.640Z,23.56
2022-11-30T13:41:47.933Z,23.53
2022-11-30T13:44:26.082Z,23.42
2022-11-30T13:46:53.656Z,23.39
2022-11-30T13:49:22.653Z,23.36
2022-11-30T13:52:20.002Z,23.35
2022-11-30T13:54:46.730Z,23.32
2022-11-30T13:57:29.414Z,23.31
2022-11-30T14:00:00.859Z,23.31
2022-11-30T14:02:42.187Z,23.33
2022-11-30T14:05:23.086Z,23.36
2022-11-30T14:07:53.220Z,23.40
2022-11-30T14:10:46.822Z,23.52
2022-11-30T14:13:14.887Z,23.54
2022-11-30T14:15:45.189Z,23.59
2022-11-30T14:18:12.279Z,23.60
2022-11-30T14:20:49.145Z,23.62
2022-11-30T14:23:19.671Z,23.70
2022-11-30T14:25:49.769Z,23.72
2022-11-30T14:28:20.491Z,23.68
2022-11-30T14:30:48.886Z,23.65
2022-11-30T14:33:41.296Z,23.60
2022-11-30T14:36:09.738Z,23.56
2022-11-30T14:38:41.907Z,23.53
2022-11-30T14:41:22.827Z,23.52
2022-11-30T14:44:04.193Z,23.51
2022-11-30T14:46:33.971Z,23.48
2022-11-30T14:49:27.642Z,23.49
2022-11-30T14:52:01.149Z,23.46
2022-11-30T14:54:37.305Z,23.46
2022-11-30T14:57:29.362Z,23.39
2022-11-30T14:59:57.293Z,23.34
2022-11-30T15:02:29.134Z,23.21
2022-11-30T15:04:58.410Z,23.09
2022-11-30T15:07:26.502Z,23.09
2022-11-30T15:10:02.059Z,23.04
2022-11-30T15:12:29.066Z,23.07
2022-11-30T15:15:23.815Z,23.05
2022-11-30T15:17:52.379Z,23.05
2022-11-30T15:20:41.542Z,23.07
2022-11-30T15:23:16.156Z,22.97
2022-11-30T15:25:46.311Z,23.00
2022-11-30T15:28:18.329Z,23.02
2022-11-30T15:30:47.654Z,22.97
2022-11-30T15:33:20.214Z,22.96
2022-11-30T15:36:15.947Z,23.00
2022-11-30T15:38:38.471Z,23.04
2022-11-30T15:41:22.879Z,23.07
2022-11-30T15:43:53.064Z,23.10
2022-11-30T15:46:29.866Z,23.09
2022-11-30T15:49:23.179Z,23.06
2022-11-30T15:52:02.548Z,23.07
2022-11-30T15:54:53.234Z,23.05
2022-11-30T15:57:21.408Z,23.05
2022-11-30T16:00:16.665Z,23.05
2022-11-30T16:02:43.914Z,22.96
2022-11-30T16:05:14.785Z,22.92
2022-11-30T16:07:52.999Z,22.88
2022-11-30T16:10:24.381Z,22.86
2022-11-30T16:12:53.429Z,22.81
2022-11-30T16:15:36.817Z,22.76
2022-11-30T16:18:24.356Z,22.72
2022-11-30T16:20:54.363Z,22.75
2022-11-30T16:23:21.835Z,22.76
2022-11-30T16:25:50.395Z,22.74
2022-11-30T16:28:19.165Z,22.75
2022-11-30T16:30:46.911Z,22.72
2022-11-30T16:33:16.156Z,22.71
2022-11-30T16:35:53.496Z,22.68
2022-11-30T16:38:21.071Z,22.62
2022-11-30T16:40:48.159Z,22.55
2022-11-30T16:43:15.397Z,22.55
2022-11-30T16:45:44.301Z,22.56
2022-11-30T16:48:11.529Z,22.51
2022-11-30T16:50:38.872Z,22.48
2022-11-30T16:53:06.459Z,22.47
2022-11-30T16:55:37.907Z,22.46
2022-11-30T16:58:05.683Z,22.46
2022-11-30T17:00:33.673Z,22.40
2022-11-30T17:03:06.499Z,22.34
2022-11-30T17:05:33.673Z,22.28
2022-11-30T17:08:00.809Z,22.23
2022-11-30T17:10:28.239Z,22.20
2022-11-30T17:12:55.297Z,22.17
2022-11-30T17:15:24.206Z,22.14
2022-11-30T17:17:51.745Z,22.10
2022-11-30T17:20:19.058Z,22.08
2022-11-30T17:22:47.044Z,22.09
2022-11-30T17:25:19.845Z,22.09
2022-11-30T17:27:47.863Z,22.08
2022-11-30T17:30:17.565Z,22.06
2022-11-30T17:32:44.661Z,22.06
2022-11-30T17:35:12.312Z,22.02
2022-11-30T17:37:39.374Z,22.01
2022-11-30T17:40:07.687Z,21.95
2022-11-30T17:42:34.829Z,21.90
2022-11-30T17:45:01.961Z,21.90
2022-11-30T17:47:28.953Z,21.87
2022-11-30T17:49:56.954Z,21.83
2022-11-30T17:52:24.022Z,21.83
2022-11-30T17:54:51.218Z,21.84
2022-11-30T17:57:18.298Z,21.80
2022-11-30T17:59:45.362Z,21.78
2022-11-30T18:02:12.884Z,21.74
2022-11-30T18:04:40.183Z,21.72
2022-11-30T18:07:07.240Z,21.69
2022-11-30T18:09:37.960Z,21.72
2022-11-30T18:12:08.150Z,21.74
2022-11-30T18:14:35.180Z,21.74
2022-11-30T18:17:02.355Z,21.75
2022-11-30T18:19:29.707Z,21.74
2022-11-30T18:21:56.710Z,21.74
2022-11-30T18:24:25.777Z,21.74
2022-11-30T18:26:53.599Z,21.74
2022-11-30T18:29:20.716Z,21.73
2022-11-30T18:31:48.678Z,21.70
2022-11-30T18:34:16.330Z,21.69
2022-11-30T18:36:43.474Z,21.68
2022-11-30T18:39:10.620Z,21.67
2022-11-30T18:41:37.979Z,21.72
2022-11-30T18:44:05.324Z,21.69
2022-11-30T18:46:32.555Z,21.67
2022-11-30T18:49:00.263Z,21.68
2022-11-30T18:51:31.306Z,21.67
2022-11-30T18:54:03.702Z,21.68
2022-11-30T18:56:33.512Z,21.68
2022-11-30T18:59:03.309Z,21.73
2022-11-30T19:01:31.675Z,21.74
2022-11-30T19:04:01.263Z,21.79
2022-11-30T19:06:30.182Z,21.84
2022-11-30T19:08:57.883Z,21.88
2022-11-30T19:11:25.214Z,21.88
2022-11-30T19:13:57.260Z,21.84
2022-11-30T19:16:25.118Z,21.82
2022-11-30T19:18:53.019Z,21.83
2022-11-30T19:21:22.009Z,21.81
2022-11-30T19:23:50.340Z,21.79
2022-11-30T19:26:17.543Z,21.79
2022-11-30T19:28:45.775Z,21.78
2022-11-30T19:31:23.413Z,21.80
2022-11-30T19:33:53.326Z,21.82
2022-11-30T19:36:30.509Z,21.81
2022-11-30T19:39:00.894Z,21.79
2022-11-30T19:41:28.430Z,21.74
2022-11-30T19:44:02.783Z,21.72
2022-11-30T19:46:32.139Z,21.73
2022-11-30T19:49:01.910Z,21.74
2022-11-30T19:51:30.609Z,21.75
2022-11-30T19:53:57.815Z,21.74
2022-11-30T19:56:25.781Z,21.75
2022-11-30T19:58:53.633Z,21.80
2022-11-30T20:01:25.676Z,21.83
2022-11-30T20:03:57.727Z,21.83
2022-11-30T20:06:27.591Z,21.82
2022-11-30T20:08:55.859Z,21.81
2022-11-30T20:11:23.073Z,21.81
2022-11-30T20:13:51.718Z,21.84
2022-11-30T20:16:21.171Z,21.87
2022-11-30T20:18:54.423Z,21.86
2022-11-30T20:21:25.131Z,21.82
2022-11-30T20:23:53.930Z,21.79
2022-11-30T20:26:29.998Z,21.77
2022-11-30T20:28:58.288Z,21.74
2022-11-30T20:31:25.949Z,21.74
2022-11-30T20:33:53.373Z,21.73
2022-11-30T20:36:21.647Z,21.70
2022-11-30T20:38:49.355Z,21.73
2022-11-30T20:41:18.728Z,21.77
2022-11-30T20:43:46.197Z,21.80
2022-11-30T20:46:25.333Z,21.84
2022-11-30T20:48:53.944Z,21.84
2022-11-30T20:51:32.170Z,21.83
2022-11-30T20:54:01.639Z,21.86
2022-11-30T20:56:28.911Z,21.88
2022-11-30T20:58:56.013Z,21.87
2022-11-30T21:01:23.436Z,21.84
2022-11-30T21:03:50.804Z,21.83
2022-11-30T21:06:17.742Z,21.83
2022-11-30T21:08:45.193Z,21.87
2022-11-30T21:11:14.841Z,21.87
2022-11-30T21:13:44.225Z,21.83
2022-11-30T21:16:12.535Z,21.80
2022-11-30T21:18:42.239Z,21.78
2022-11-30T21:21:14.877Z,21.78
2022-11-30T21:23:42.755Z,21.77
2022-11-30T21:26:21.772Z,21.77
2022-11-30T21:28:50.677Z,21.76
2022-11-30T21:31:17.796Z,21.73
2022-11-30T21:33:52.404Z,21.72
2022-11-30T21:36:21.312Z,21.68
2022-11-30T21:38:48.281Z,21.68
2022-11-30T21:41:15.588Z,21.68
2022-11-30T21:43:42.814Z,21.66
2022-11-30T21:46:15.319Z,21.69
2022-11-30T21:48:44.627Z,21.68
2022-11-30T21:51:14.267Z,21.65
2022-11-30T21:53:43.573Z,21.61
2022-11-30T21:56:15.232Z,21.60
2022-11-30T21:58:44.280Z,21.60
2022-11-30T22:01:14.435Z,21.58
2022-11-30T22:03:41.522Z,21.60
2022-11-30T22:06:19.225Z,21.61
2022-11-30T22:08:46.932Z,21.62
2022-11-30T22:11:17.414Z,21.61
2022-11-30T22:13:45.423Z,21.60
2022-11-30T22:16:15.053Z,21.63
2022-11-30T22:18:43.563Z,21.64
2022-11-30T22:21:13.490Z,21.67
2022-11-30T22:23:45.760Z,21.70
2022-11-30T22:26:24.392Z,21.69
2022-11-30T22:28:57.003Z,21.68
2022-11-30T22:31:30.793Z,21.68
2022-11-30T22:33:58.062Z,21.63
2022-11-30T22:36:27.711Z,21.63
2022-11-30T22:38:57.079Z,21.63
2022-11-30T22:41:25.498Z,21.65
2022-11-30T22:43:52.881Z,21.68
2022-11-30T22:46:24.085Z,21.69
2022-11-30T22:48:52.059Z,21.71
2022-11-30T22:51:24.463Z,21.68
2022-11-30T22:53:52.943Z,21.66
2022-11-30T22:56:22.560Z,21.68
2022-11-30T22:58:51.312Z,21.67
2022-11-30T23:01:23.986Z,21.69
2022-11-30T23:03:53.924Z,21.72
2022-11-30T23:06:22.588Z,21.75
2022-11-30T23:08:50.983Z,21.75
2022-11-30T23:11:23.323Z,21.73
2022-11-30T23:13:50.625Z,21.73
2022-11-30T23:16:18.221Z,21.69
2022-11-30T23:18:51.331Z,21.68
2022-11-30T23:21:21.844Z,21.61
2022-11-30T23:23:49.144Z,21.52
2022-11-30T23:26:22.314Z,21.44
2022-11-30T23:28:51.434Z,21.39
2022-11-30T23:31:34.466Z,21.38
2022-11-30T23:34:03.733Z,21.38
2022-11-30T23:36:30.838Z,21.40
2022-11-30T23:38:59.919Z,21.43
2022-11-30T23:41:27.560Z,21.46
2022-11-30T23:43:54.771Z,21.46
2022-11-30T23:46:22.105Z,21.52
2022-11-30T23:48:49.395Z,21.52
2022-11-30T23:51:16.453Z,21.54
2022-11-30T23:53:43.621Z,21.55
2022-11-30T23:56:14.061Z,21.56
2022-11-30T23:58:41.240Z,21.59
